createdAt,value
2022-10-09T00:01:06.744Z,6.25
2022-10-09T00:03:34.534Z,6.10
2022-10-09T00:06:01.573Z,5.93
2022-10-09T00:08:28.544Z,6.25
2022-10-09T00:10:55.422Z,6.07
2022-10-09T00:13:22.552Z,6.40
2022-10-09T00:15:49.315Z,6.05
2022-10-09T00:18:18.153Z,6.63
2022-10-09T00:20:46.484Z,6.60
2022-10-09T00:23:16.605Z,6.78
2022-10-09T00:26:01.592Z,7.13
2022-10-09T00:28:33.385Z,7.10
2022-10-09T00:31:08.117Z,6.45
2022-10-09T00:33:36.053Z,6.57
2022-10-09T00:36:09.119Z,6.43
2022-10-09T00:38:35.931Z,6.25
2022-10-09T00:41:03.013Z,6.65
2022-10-09T00:43:48.588Z,6.53
2022-10-09T00:46:30.097Z,6.20
2022-10-09T00:49:05.366Z,6.85
2022-10-09T00:51:34.078Z,7.05
2022-10-09T00:54:03.910Z,6.40
2022-10-09T00:56:30.831Z,6.70
2022-10-09T00:58:59.345Z,6.22
2022-10-09T01:01:28.135Z,6.93
2022-10-09T01:03:54.897Z,6.57
2022-10-09T01:06:56.040Z,6.18
2022-10-09T01:09:35.332Z,5.80
2022-10-09T01:12:41.001Z,6.65
2022-10-09T01:15:32.432Z,6.20
2022-10-09T01:18:29.410Z,5.82
2022-10-09T01:21:14.329Z,6.20
2022-10-09T01:23:59.436Z,5.90
2022-10-09T01:26:51.591Z,5.93
2022-10-09T01:29:23.363Z,6.10
2022-10-09T01:31:51.816Z,6.55
2022-10-09T01:34:20.873Z,6.75
2022-10-09T01:36:48.015Z,5.68
2022-10-09T01:39:19.970Z,6.00
2022-10-09T01:41:48.414Z,6.35
2022-10-09T01:44:19.472Z,5.85
2022-10-09T01:46:46.747Z,5.68
2022-10-09T01:49:21.455Z,5.93
2022-10-09T01:52:10.481Z,5.93
2022-10-09T01:54:53.654Z,5.75
2022-10-09T01:57:29.632Z,5.50
2022-10-09T01:59:59.570Z,5.50
2022-10-09T02:02:27.481Z,6.05
2022-10-09T02:04:54.812Z,5.65
2022-10-09T02:07:24.099Z,5.75
2022-10-09T02:09:51.577Z,5.82
2022-10-09T02:12:20.666Z,5.72
2022-10-09T02:14:47.439Z,5.65
2022-10-09T02:17:20.266Z,5.22
2022-10-09T02:19:58.712Z,5.97
2022-10-09T02:22:30.829Z,5.80
2022-10-09T02:25:00.010Z,5.75
2022-10-09T02:27:27.462Z,5.50
2022-10-09T02:29:54.967Z,6.25
2022-10-09T02:32:22.947Z,6.03
2022-10-09T02:34:49.676Z,5.63
2022-10-09T02:37:16.480Z,5.80
2022-10-09T02:39:43.748Z,5.78
2022-10-09T02:42:10.711Z,5.68
2022-10-09T02:44:39.641Z,6.35
2022-10-09T02:47:06.400Z,5.55
2022-10-09T02:49:33.094Z,6.00
2022-10-09T02:51:59.836Z,6.40
2022-10-09T02:54:26.518Z,6.05
2022-10-09T02:56:53.165Z,5.90
2022-10-09T02:59:19.863Z,5.95
2022-10-09T03:01:46.651Z,5.60
2022-10-09T03:04:13.617Z,6.80
2022-10-09T03:06:40.386Z,6.47
2022-10-09T03:09:09.545Z,6.00
2022-10-09T03:11:36.277Z,6.15
2022-10-09T03:14:03.054Z,5.78
2022-10-09T03:16:29.855Z,6.22
2022-10-09T03:18:56.700Z,6.50
2022-10-09T03:21:26.316Z,6.07
2022-10-09T03:23:53.905Z,6.28
2022-10-09T03:26:23.793Z,7.00
2022-10-09T03:28:51.799Z,5.90
2022-10-09T03:31:46.940Z,6.50
2022-10-09T03:34:07.357Z,5.50
2022-10-09T03:36:34.110Z,5.95
2022-10-09T03:39:00.870Z,6.18
2022-10-09T03:41:27.585Z,5.88
2022-10-09T03:43:54.376Z,5.65
2022-10-09T03:46:21.132Z,5.72
2022-10-09T03:48:47.954Z,6.28
2022-10-09T03:51:14.679Z,6.47
2022-10-09T03:53:41.337Z,6.47
2022-10-09T03:56:08.023Z,5.93
2022-10-09T03:58:34.837Z,6.05
2022-10-09T04:01:01.687Z,6.70
2022-10-09T04:03:28.921Z,6.05
2022-10-09T04:05:55.636Z,6.40
2022-10-09T04:08:22.315Z,6.28
2022-10-09T04:10:59.365Z,6.40
2022-10-09T04:13:26.338Z,6.80
2022-10-09T04:15:54.337Z,6.68
2022-10-09T04:18:21.593Z,6.28
2022-10-09T04:20:53.216Z,6.38
2022-10-09T04:23:22.532Z,6.10
2022-10-09T04:25:53.859Z,6.47
2022-10-09T04:28:21.036Z,6.50
2022-10-09T04:30:47.799Z,6.60
2022-10-09T04:33:14.656Z,6.45
2022-10-09T04:35:46.082Z,5.80
2022-10-09T04:38:12.808Z,6.35
2022-10-09T04:40:39.541Z,6.80
2022-10-09T04:43:06.326Z,6.13
2022-10-09T04:45:33.349Z,6.45
2022-10-09T04:48:00.341Z,6.88
2022-10-09T04:50:27.008Z,6.63
2022-10-09T04:52:53.762Z,6.50
2022-10-09T04:55:20.528Z,6.13
2022-10-09T04:57:47.176Z,6.13
2022-10-09T05:00:14.432Z,6.40
2022-10-09T05:02:41.091Z,5.68
2022-10-09T05:05:08.322Z,6.43
2022-10-09T05:07:35.053Z,6.72
2022-10-09T05:10:01.895Z,6.10
2022-10-09T05:12:28.525Z,5.93
2022-10-09T05:14:55.257Z,6.30
2022-10-09T05:17:23.568Z,6.03
2022-10-09T05:19:50.528Z,5.60
2022-10-09T05:22:17.240Z,5.72
2022-10-09T05:24:43.971Z,5.45
2022-10-09T05:27:10.689Z,5.72
2022-10-09T05:29:37.433Z,5.53
2022-10-09T05:32:04.256Z,5.43
2022-10-09T05:34:31.172Z,5.85
2022-10-09T05:36:57.792Z,5.75
2022-10-09T05:39:24.719Z,5.65
2022-10-09T05:41:53.775Z,5.47
2022-10-09T05:44:20.578Z,5.50
2022-10-09T05:46:47.237Z,5.80
2022-10-09T05:49:14.025Z,5.63
2022-10-09T05:51:44.302Z,5.57
2022-10-09T05:54:16.679Z,5.30
2022-10-09T05:56:44.591Z,5.30
2022-10-09T05:59:14.963Z,5.55
2022-10-09T06:01:44.727Z,5.80
2022-10-09T06:04:16.661Z,5.70
2022-10-09T06:06:44.422Z,7.22
2022-10-09T06:09:12.155Z,6.20
2022-10-09T06:11:40.466Z,6.05
2022-10-09T06:14:09.457Z,5.82
2022-10-09T06:16:38.865Z,5.28
2022-10-09T06:19:07.065Z,6.30
2022-10-09T06:21:34.654Z,5.50
2022-10-09T06:24:03.643Z,5.40
2022-10-09T06:26:30.962Z,5.20
2022-10-09T06:28:59.740Z,6.28
2022-10-09T06:31:28.730Z,5.88
2022-10-09T06:33:56.012Z,5.85
2022-10-09T06:36:27.563Z,5.93
2022-10-09T06:38:55.044Z,6.07
2022-10-09T06:41:24.436Z,5.70
2022-10-09T06:43:53.733Z,5.90
2022-10-09T06:46:22.246Z,5.93
2022-10-09T06:48:49.078Z,6.03
2022-10-09T06:51:18.557Z,5.30
2022-10-09T06:53:47.905Z,5.55
2022-10-09T06:56:16.136Z,5.45
2022-10-09T06:58:43.292Z,6.05
2022-10-09T07:01:16.377Z,5.03
2022-10-09T07:03:45.066Z,5.40
2022-10-09T07:06:16.057Z,5.20
2022-10-09T07:08:45.414Z,4.88
2022-10-09T07:11:14.561Z,5.45
2022-10-09T07:13:42.214Z,4.90
2022-10-09T07:16:10.459Z,5.28
2022-10-09T07:18:37.960Z,5.10
2022-10-09T07:21:07.223Z,5.13
2022-10-09T07:23:35.453Z,5.00
2022-10-09T07:26:08.924Z,4.90
2022-10-09T07:28:35.793Z,5.28
2022-10-09T07:31:06.851Z,4.65
2022-10-09T07:33:33.846Z,5.30
2022-10-09T07:36:02.127Z,4.90
2022-10-09T07:38:29.335Z,5.10
2022-10-09T07:41:01.715Z,4.85
2022-10-09T07:43:28.783Z,4.60
2022-10-09T07:46:02.300Z,4.63
2022-10-09T07:48:29.611Z,5.38
2022-10-09T07:50:56.455Z,5.13
2022-10-09T07:53:23.525Z,4.60
2022-10-09T07:55:50.256Z,5.85
2022-10-09T07:58:17.652Z,4.40
2022-10-09T08:00:44.609Z,4.70
2022-10-09T08:03:11.518Z,5.32
2022-10-09T08:05:38.283Z,4.10
2022-10-09T08:08:05.028Z,4.75
2022-10-09T08:10:32.599Z,4.68
2022-10-09T08:12:59.328Z,4.78
2022-10-09T08:15:29.561Z,4.70
2022-10-09T08:17:56.368Z,4.85
2022-10-09T08:20:23.238Z,4.40
2022-10-09T08:22:50.496Z,5.10
2022-10-09T08:25:17.525Z,4.75
2022-10-09T08:27:44.323Z,4.72
2022-10-09T08:30:11.400Z,5.00
2022-10-09T08:32:38.293Z,4.43
2022-10-09T08:35:05.480Z,4.28
2022-10-09T08:37:32.342Z,4.82
2022-10-09T08:39:59.696Z,4.53
2022-10-09T08:42:52.529Z,4.57
2022-10-09T08:45:19.845Z,4.32
2022-10-09T08:47:52.455Z,4.10
2022-10-09T08:50:24.381Z,4.00
2022-10-09T08:52:51.536Z,4.13
2022-10-09T08:55:36.844Z,4.30
2022-10-09T08:58:05.840Z,4.13
2022-10-09T09:00:44.552Z,4.90
2022-10-09T09:03:55.755Z,4.15
2022-10-09T09:06:54.906Z,4.00
2022-10-09T09:09:40.332Z,4.05
2022-10-09T09:12:12.440Z,3.67
2022-10-09T09:15:20.395Z,3.63
2022-10-09T09:18:11.839Z,3.95
2022-10-09T09:21:04.956Z,3.80
2022-10-09T09:29:06.458Z,4.15
2022-10-09T09:40:38.110Z,3.97
2022-10-09T09:43:19.827Z,3.80
2022-10-09T09:45:47.564Z,3.58
2022-10-09T09:48:42.232Z,3.10
2022-10-09T09:51:29.946Z,3.60
2022-10-09T09:54:17.087Z,3.30
2022-10-09T09:59:37.510Z,3.55
2022-10-09T10:02:14.816Z,3.58
2022-10-09T10:05:02.039Z,3.08
2022-10-09T10:07:38.760Z,3.75
2022-10-09T10:10:28.812Z,2.97
2022-10-09T10:13:00.735Z,2.97
2022-10-09T10:15:32.886Z,2.70
2022-10-09T10:18:12.497Z,2.53
2022-10-09T10:20:47.054Z,2.85
2022-10-09T10:23:29.983Z,2.67
2022-10-09T10:25:59.346Z,2.97
2022-10-09T10:28:32.094Z,2.78
2022-10-09T10:31:02.016Z,2.63
2022-10-09T10:33:36.957Z,2.80
2022-10-09T10:36:05.087Z,2.97
2022-10-09T10:38:37.530Z,2.53
2022-10-09T10:41:20.186Z,2.97
2022-10-09T10:44:02.853Z,2.85
2022-10-09T10:46:58.964Z,2.63
2022-10-09T10:52:20.512Z,2.63
2022-10-09T10:55:09.331Z,2.15
2022-10-09T10:57:41.382Z,2.30
2022-10-09T11:00:11.551Z,2.40
2022-10-09T11:02:56.960Z,2.30
2022-10-09T11:05:28.986Z,2.00
2022-10-09T11:08:23.865Z,1.90
2022-10-09T11:11:14.083Z,2.67
2022-10-09T11:13:47.730Z,2.40
2022-10-09T11:16:48.468Z,2.65
2022-10-09T11:19:46.322Z,3.00
2022-10-09T11:23:00.161Z,1.85
2022-10-09T11:25:49.667Z,1.85
2022-10-09T11:28:22.353Z,2.60
2022-10-09T11:30:59.025Z,2.22
2022-10-09T11:33:50.115Z,2.03
2022-10-09T11:36:44.064Z,2.00
2022-10-09T11:39:22.506Z,2.15
2022-10-09T11:41:56.523Z,1.77
2022-10-09T11:44:57.772Z,1.80
2022-10-09T11:50:57.676Z,1.85
2022-10-09T11:53:39.862Z,1.90
2022-10-09T11:56:18.971Z,1.48
2022-10-09T11:59:00.207Z,1.30
2022-10-09T12:01:31.919Z,1.38
2022-10-09T12:04:43.598Z,1.20
2022-10-09T12:07:13.282Z,1.50
2022-10-09T12:09:43.493Z,1.23
2022-10-09T12:12:16.426Z,1.10
2022-10-09T12:14:45.852Z,1.60
2022-10-09T12:17:33.159Z,1.17
2022-10-09T12:20:16.973Z,0.98
2022-10-09T12:23:07.411Z,3.03
2022-10-09T12:25:45.985Z,1.30
2022-10-09T12:28:28.023Z,1.30
2022-10-09T12:30:57.049Z,1.10
2022-10-09T12:33:34.157Z,1.30
2022-10-09T12:36:09.470Z,1.08
2022-10-09T12:38:36.592Z,1.10
2022-10-09T12:41:08.287Z,1.30
2022-10-09T12:43:47.866Z,1.35
2022-10-09T12:46:15.042Z,1.20
2022-10-09T12:48:43.613Z,1.23
2022-10-09T12:51:23.223Z,1.08
2022-10-09T12:53:52.595Z,1.10
2022-10-09T12:56:31.560Z,1.00
2022-10-09T12:58:59.715Z,1.13
2022-10-09T13:01:27.228Z,1.10
2022-10-09T13:04:05.388Z,1.13
2022-10-09T13:06:53.163Z,1.10
2022-10-09T13:09:39.607Z,1.00
2022-10-09T13:12:17.843Z,0.95
2022-10-09T13:14:59.438Z,1.13
2022-10-09T13:23:36.006Z,1.20
2022-10-09T13:26:10.149Z,1.02
2022-10-09T13:28:37.957Z,1.30
2022-10-09T13:33:41.620Z,0.93
2022-10-09T13:36:11.568Z,1.17
2022-10-09T13:41:23.705Z,1.25
2022-10-09T13:49:10.415Z,1.67
2022-10-09T13:51:37.553Z,1.30
2022-10-09T13:54:04.547Z,1.10
2022-10-09T13:56:32.156Z,1.33
2022-10-09T14:01:49.403Z,1.35
2022-10-09T14:04:17.281Z,1.10
2022-10-09T14:06:44.157Z,1.23
2022-10-09T14:09:16.157Z,1.20
2022-10-09T14:11:43.070Z,1.17
2022-10-09T14:14:09.917Z,1.17
2022-10-09T14:16:36.875Z,1.60
2022-10-09T14:19:05.214Z,1.50
2022-10-09T14:21:32.373Z,1.17
2022-10-09T14:24:01.827Z,1.30
2022-10-09T14:26:29.691Z,1.30
2022-10-09T14:29:00.188Z,1.10
2022-10-09T14:31:27.730Z,1.23
2022-10-09T14:33:58.122Z,1.30
2022-10-09T14:36:25.835Z,1.90
2022-10-09T14:38:53.235Z,1.30
2022-10-09T14:41:21.881Z,1.10
2022-10-09T14:43:56.235Z,1.30
2022-10-09T14:46:24.101Z,1.38
2022-10-09T14:48:51.553Z,1.50
2022-10-09T14:51:21.188Z,1.52
2022-10-09T14:53:48.388Z,1.17
2022-10-09T14:56:20.076Z,1.20
2022-10-09T14:58:47.552Z,1.30
2022-10-09T15:01:19.531Z,1.35
2022-10-09T15:03:48.329Z,1.42
2022-10-09T15:06:17.734Z,1.30
2022-10-09T15:08:45.538Z,1.50
2022-10-09T15:11:12.973Z,1.20
2022-10-09T15:13:40.312Z,1.20
2022-10-09T15:16:12.844Z,1.10
2022-10-09T15:18:40.410Z,1.20
2022-10-09T15:21:22.935Z,1.20
2022-10-09T15:23:50.646Z,1.50
2022-10-09T15:26:19.593Z,1.60
2022-10-09T15:28:46.414Z,1.60
2022-10-09T15:31:37.559Z,1.55
2022-10-09T15:34:05.297Z,1.30
2022-10-09T15:36:36.209Z,1.20
2022-10-09T15:39:07.204Z,1.50
2022-10-09T15:41:38.769Z,1.60
2022-10-09T15:44:14.726Z,1.40
2022-10-09T15:46:41.612Z,1.70
2022-10-09T15:49:08.756Z,1.60
2022-10-09T15:51:38.356Z,1.33
2022-10-09T15:54:05.712Z,1.50
2022-10-09T15:56:35.963Z,1.80
2022-10-09T15:59:10.441Z,1.40
2022-10-09T16:01:37.299Z,1.80
2022-10-09T16:04:04.116Z,1.77
2022-10-09T16:06:33.048Z,1.70
2022-10-09T16:09:00.939Z,1.95
2022-10-09T16:11:27.584Z,2.05
2022-10-09T16:13:55.042Z,2.20
2022-10-09T16:16:24.180Z,2.30
2022-10-09T16:18:51.716Z,2.15
2022-10-09T16:21:28.618Z,2.38
2022-10-09T16:23:58.888Z,2.50
2022-10-09T16:26:28.109Z,2.85
2022-10-09T16:28:58.813Z,4.20
2022-10-09T16:31:28.652Z,3.88
2022-10-09T16:33:56.396Z,2.70
2022-10-09T16:36:28.292Z,2.60
2022-10-09T16:38:56.250Z,2.60
2022-10-09T16:41:23.684Z,2.53
2022-10-09T16:43:53.184Z,2.35
2022-10-09T16:46:21.598Z,2.30
2022-10-09T16:48:49.707Z,2.20
2022-10-09T16:51:21.833Z,3.38
2022-10-09T16:53:52.667Z,2.78
2022-10-09T16:56:22.615Z,2.85
2022-10-09T16:58:53.336Z,2.50
2022-10-09T17:01:22.494Z,3.35
2022-10-09T17:03:56.434Z,2.60
2022-10-09T17:06:28.956Z,2.30
2022-10-09T17:08:58.409Z,2.05
2022-10-09T17:11:33.358Z,1.95
2022-10-09T17:14:00.517Z,2.03
2022-10-09T17:16:31.434Z,1.92
2022-10-09T17:18:58.852Z,2.05
2022-10-09T17:21:27.948Z,2.42
2022-10-09T17:24:02.339Z,2.20
2022-10-09T17:26:34.502Z,4.30
2022-10-09T17:29:02.277Z,1.98
2022-10-09T17:31:31.805Z,2.15
2022-10-09T17:34:01.071Z,2.13
2022-10-09T17:36:33.506Z,2.40
2022-10-09T17:39:03.502Z,2.30
2022-10-09T17:41:30.410Z,2.22
2022-10-09T17:43:57.532Z,2.00
2022-10-09T17:46:26.405Z,2.10
2022-10-09T17:48:53.466Z,2.20
2022-10-09T17:51:27.123Z,2.00
2022-10-09T17:56:25.276Z,2.42
2022-10-09T17:58:52.806Z,1.98
2022-10-09T18:01:19.586Z,2.15
2022-10-09T18:03:46.446Z,2.22
2022-10-09T18:06:16.175Z,2.22
2022-10-09T18:08:44.190Z,2.60
2022-10-09T18:11:14.647Z,2.83
2022-10-09T18:13:43.470Z,2.60
2022-10-09T18:16:14.399Z,2.00
2022-10-09T18:18:41.261Z,2.30
2022-10-09T18:21:11.228Z,2.58
2022-10-09T18:23:38.679Z,2.95
2022-10-09T18:26:10.926Z,2.17
2022-10-09T18:28:38.408Z,2.47
2022-10-09T18:31:10.611Z,2.10
2022-10-09T18:33:37.435Z,2.58
2022-10-09T18:36:07.430Z,2.55
2022-10-09T18:38:34.645Z,2.50
2022-10-09T18:41:02.106Z,2.40
2022-10-09T18:43:29.411Z,2.70
2022-10-09T18:46:04.657Z,2.50
2022-10-09T18:48:34.593Z,2.50
2022-10-09T18:51:02.503Z,2.50
2022-10-09T18:53:30.800Z,2.55
2022-10-09T18:55:57.944Z,2.20
2022-10-09T18:58:25.993Z,2.20
2022-10-09T19:00:52.769Z,2.30
2022-10-09T19:03:19.619Z,2.97
2022-10-09T19:05:46.406Z,2.53
2022-10-09T19:08:13.176Z,2.28
2022-10-09T19:10:40.032Z,2.40
2022-10-09T19:13:06.798Z,2.45
2022-10-09T19:15:33.488Z,2.60
2022-10-09T19:18:00.237Z,2.60
2022-10-09T19:20:28.962Z,2.40
2022-10-09T19:22:55.726Z,2.58
2022-10-09T19:25:22.696Z,2.80
2022-10-09T19:27:49.800Z,2.50
2022-10-09T19:30:24.216Z,2.75
2022-10-09T19:32:53.695Z,2.95
2022-10-09T19:35:20.451Z,2.50
2022-10-09T19:37:47.486Z,2.90
2022-10-09T19:40:14.463Z,2.55
2022-10-09T19:42:41.169Z,2.42
2022-10-09T19:45:08.663Z,2.35
2022-10-09T19:47:35.416Z,2.85
2022-10-09T19:50:02.147Z,2.70
2022-10-09T19:52:28.937Z,2.60
2022-10-09T19:54:55.630Z,6.32
2022-10-09T19:57:22.384Z,8.77
2022-10-09T19:59:49.145Z,3.60
2022-10-09T20:02:15.878Z,2.80
2022-10-09T20:04:42.662Z,2.70
2022-10-09T20:07:12.793Z,2.90
2022-10-09T20:09:39.947Z,3.08
2022-10-09T20:12:10.017Z,3.10
2022-10-09T20:14:36.754Z,2.75
2022-10-09T20:17:03.461Z,2.63
2022-10-09T20:19:31.590Z,2.40
2022-10-09T20:21:58.513Z,3.20
2022-10-09T20:24:25.352Z,2.92
2022-10-09T20:26:52.096Z,2.58
2022-10-09T20:29:19.110Z,2.72
2022-10-09T20:31:45.889Z,2.75
2022-10-09T20:34:15.409Z,3.15
2022-10-09T20:36:42.287Z,2.88
2022-10-09T20:39:13.178Z,3.03
2022-10-09T20:41:42.417Z,2.97
2022-10-09T20:44:09.545Z,2.72
2022-10-09T20:46:38.776Z,2.90
2022-10-09T20:49:10.724Z,3.50
2022-10-09T20:51:38.337Z,3.20
2022-10-09T20:54:06.391Z,3.00
2022-10-09T20:56:34.152Z,3.10
2022-10-09T20:59:01.572Z,2.90
2022-10-09T21:01:28.935Z,3.08
2022-10-09T21:03:57.040Z,2.90
2022-10-09T21:06:23.959Z,3.00
2022-10-09T21:08:50.782Z,2.70
2022-10-09T21:11:18.540Z,2.92
2022-10-09T21:13:46.210Z,2.80
2022-10-09T21:16:15.694Z,2.90
2022-10-09T21:18:42.706Z,3.05
2022-10-09T21:21:13.687Z,2.70
2022-10-09T21:23:41.659Z,2.70
2022-10-09T21:26:13.247Z,3.03
2022-10-09T21:28:40.066Z,3.10
2022-10-09T21:31:11.633Z,4.45
2022-10-09T21:33:38.435Z,5.35
2022-10-09T21:36:13.508Z,3.25
2022-10-09T21:38:42.711Z,3.15
2022-10-09T21:41:09.457Z,3.10
2022-10-09T21:43:36.196Z,3.17
2022-10-09T21:46:06.051Z,3.30
2022-10-09T21:48:32.814Z,3.55
2022-10-09T21:50:59.584Z,3.00
2022-10-09T21:53:26.317Z,3.17
2022-10-09T21:55:53.015Z,2.95
2022-10-09T21:58:19.793Z,2.78
2022-10-09T22:00:46.614Z,3.40
2022-10-09T22:03:13.326Z,3.08
2022-10-09T22:05:40.704Z,2.75
2022-10-09T22:08:07.525Z,3.10
2022-10-09T22:10:34.268Z,2.90
2022-10-09T22:13:01.024Z,3.03
2022-10-09T22:15:27.713Z,2.95
2022-10-09T22:17:54.458Z,2.78
2022-10-09T22:20:21.183Z,2.72
2022-10-09T22:22:50.280Z,3.28
2022-10-09T22:25:17.232Z,2.88
2022-10-09T22:27:43.960Z,2.75
2022-10-09T22:30:11.382Z,3.00
2022-10-09T22:32:38.075Z,3.05
2022-10-09T22:35:05.102Z,3.17
2022-10-09T22:37:32.066Z,3.00
2022-10-09T22:39:58.795Z,3.20
2022-10-09T22:42:25.549Z,3.40
2022-10-09T22:44:52.222Z,2.85
2022-10-09T22:47:18.979Z,2.80
2022-10-09T22:49:45.835Z,2.90
2022-10-09T22:52:12.564Z,3.40
2022-10-09T22:54:39.401Z,2.70
2022-10-09T22:57:06.182Z,3.15
2022-10-09T22:59:33.017Z,2.80
2022-10-09T23:02:00.444Z,2.67
2022-10-09T23:04:28.869Z,2.55
2022-10-09T23:06:59.701Z,2.67
2022-10-09T23:09:34.129Z,3.08
2022-10-09T23:12:00.976Z,2.88
2022-10-09T23:14:27.902Z,2.90
2022-10-09T23:16:54.638Z,2.83
2022-10-09T23:19:21.393Z,2.80
2022-10-09T23:21:48.120Z,2.80
2022-10-09T23:24:17.650Z,2.80
2022-10-09T23:26:46.373Z,3.05
2022-10-09T23:29:16.769Z,2.40
2022-10-09T23:31:43.585Z,2.83
2022-10-09T23:34:11.400Z,3.35
2022-10-09T23:36:38.307Z,2.90
2022-10-09T23:39:06.384Z,2.75
2022-10-09T23:41:33.475Z,2.65
2022-10-09T23:44:00.210Z,2.95
2022-10-09T23:46:29.412Z,2.58
2022-10-09T23:48:59.604Z,2.72
2022-10-09T23:51:27.563Z,2.80
2022-10-09T23:53:55.004Z,2.80
2022-10-09T23:56:26.529Z,3.08
2022-10-09T23:58:54.586Z,2.70
